Time;durP1;ratioP1;P1;durP2;ratioP2;P2;SDS_P1;SDS_P2;PMS_P1;PMS_P2;Temp;Humidity;BMP_temperature;BMP_pressure;BME280_temperature;BME280_humidity;BME280_pressure;Samples;Min_cycle;Max_cycle;Signal;HPM_P1;HPM_P2
2023/03/29 00:01:01;;;;;;;6.93;2.50;;;5.90;52.90;;;;;;4977085;28;20037;-75
2023/03/29 00:03:27;;;;;;;6.80;2.63;;;5.80;53.60;;;;;;4994474;28;20022;-74
2023/03/29 00:06:01;;;;;;;11.38;2.20;;;5.80;53.00;;;;;;4977086;28;20045;-75
2023/03/29 00:08:28;;;;;;;5.32;2.20;;;5.80;53.00;;;;;;4994582;28;20018;-75
2023/03/29 00:10:55;;;;;;;6.10;2.20;;;5.80;52.70;;;;;;4994521;28;20026;-75
2023/03/29 00:13:21;;;;;;;5.78;1.65;;;5.80;52.50;;;;;;4994331;28;20030;-75
2023/03/29 00:15:47;;;;;;;4.10;1.60;;;5.80;52.10;;;;;;4994336;28;20034;-75
2023/03/29 00:18:13;;;;;;;4.28;1.90;;;5.80;52.00;;;;;;4994195;28;20407;-74
2023/03/29 00:20:38;;;;;;;4.07;1.80;;;5.70;51.90;;;;;;4994202;28;20105;-74
2023/03/29 00:23:05;;;;;;;3.53;1.65;;;5.70;51.80;;;;;;4993990;28;20097;-75
2023/03/29 00:25:30;;;;;;;3.40;1.52;;;5.80;51.70;;;;;;4971860;28;20105;-75
2023/03/29 00:27:56;;;;;;;7.10;1.90;;;5.70;51.70;;;;;;4970609;28;20030;-75
2023/03/29 00:30:22;;;;;;;5.07;2.05;;;5.70;51.70;;;;;;4976713;28;20033;-75
2023/03/29 00:32:48;;;;;;;5.90;1.77;;;5.70;51.60;;;;;;4976439;28;20045;-75
2023/03/29 00:35:13;;;;;;;7.13;1.90;;;5.70;51.60;;;;;;4991419;28;20058;-75
2023/03/29 00:37:40;;;;;;;3.97;1.67;;;5.70;51.50;;;;;;4982670;28;20033;-75
2023/03/29 00:40:10;;;;;;;5.15;1.77;;;5.70;51.50;;;;;;4993925;28;20472;-75
2023/03/29 00:42:37;;;;;;;3.75;1.60;;;5.70;51.60;;;;;;4994006;28;20034;-75
2023/03/29 00:45:11;;;;;;;3.70;1.48;;;5.70;51.50;;;;;;4976353;28;20116;-74
2023/03/29 00:47:45;;;;;;;3.08;1.60;;;5.70;51.50;;;;;;4993989;28;20026;-75
2023/03/29 00:50:21;;;;;;;4.97;2.10;;;5.70;51.40;;;;;;4993894;28;20042;-75
2023/03/29 00:52:56;;;;;;;8.45;2.75;;;5.70;51.30;;;;;;4993912;28;20018;-75
2023/03/29 00:55:25;;;;;;;6.22;2.42;;;5.70;51.30;;;;;;4993683;28;20113;-75
2023/03/29 00:57:54;;;;;;;4.55;1.95;;;5.70;51.40;;;;;;4976358;28;20034;-75
2023/03/29 01:00:25;;;;;;;8.35;2.08;;;5.70;51.50;;;;;;4993812;28;20042;-74
2023/03/29 01:02:54;;;;;;;4.88;2.03;;;5.70;51.70;;;;;;4993843;28;20088;-75
2023/03/29 01:05:29;;;;;;;3.60;1.88;;;5.80;52.00;;;;;;4993654;28;20015;-75
2023/03/29 01:08:05;;;;;;;4.55;1.90;;;5.80;52.20;;;;;;4976385;28;20384;-75
2023/03/29 01:10:55;;;;;;;4.45;2.17;;;5.80;52.30;;;;;;4976319;28;20038;-75
2023/03/29 01:13:30;;;;;;;5.75;2.53;;;5.80;52.50;;;;;;4993526;28;20026;-75
2023/03/29 01:15:57;;;;;;;8.93;2.78;;;5.90;52.80;;;;;;4993758;28;20027;-75
2023/03/29 01:18:23;;;;;;;5.85;2.47;;;5.90;53.00;;;;;;4994025;28;20042;-75
2023/03/29 01:21:14;;;;;;;15.45;7.25;;;5.90;52.80;;;;;;4976452;28;20494;-75
2023/03/29 01:24:08;;;;;;;6.88;3.40;;;5.90;52.90;;;;;;4993906;28;20030;-75
2023/03/29 01:26:40;;;;;;;6.87;2.70;;;5.90;52.80;;;;;;4976171;28;20058;-75
2023/03/29 01:29:08;;;;;;;5.55;2.10;;;6.00;52.70;;;;;;4993773;28;20262;-74
2023/03/29 01:31:43;;;;;;;6.70;2.17;;;6.00;52.60;;;;;;4976317;28;20026;-75
2023/03/29 01:34:15;;;;;;;5.45;2.22;;;6.00;52.60;;;;;;4993547;28;20042;-75
2023/03/29 01:36:59;;;;;;;4.22;1.90;;;6.10;52.60;;;;;;4976280;28;20046;-75
2023/03/29 01:39:25;;;;;;;7.38;2.25;;;6.10;52.60;;;;;;4997223;28;20467;-75
2023/03/29 01:41:57;;;;;;;6.03;1.60;;;6.10;52.30;;;;;;4997551;28;20057;-75
2023/03/29 01:44:29;;;;;;;7.22;2.22;;;6.20;52.20;;;;;;4997597;28;20474;-75
2023/03/29 01:47:22;;;;;;;6.63;2.17;;;6.20;52.40;;;;;;4997525;28;20065;-75
2023/03/29 01:49:59;;;;;;;6.50;2.00;;;6.20;52.30;;;;;;4947971;28;20049;-75
2023/03/29 01:53:11;;;;;;;3.15;1.52;;;6.20;52.20;;;;;;4997409;28;20030;-75
2023/03/29 01:55:45;;;;;;;5.65;1.92;;;6.30;52.20;;;;;;4890642;29;20513;-75
2023/03/29 01:58:13;;;;;;;4.28;2.10;;;6.30;52.20;;;;;;4880433;29;20041;-75
2023/03/29 02:00:41;;;;;;;5.88;2.30;;;6.40;52.20;;;;;;4899461;29;20080;-75
2023/03/29 02:03:08;;;;;;;7.88;2.00;;;6.40;52.20;;;;;;4883684;29;20044;-74
2023/03/29 02:05:35;;;;;;;6.82;1.85;;;6.40;52.30;;;;;;4899368;29;20573;-75
2023/03/29 02:08:04;;;;;;;5.53;2.22;;;6.40;52.10;;;;;;4914909;29;20044;-75
2023/03/29 02:10:32;;;;;;;7.35;2.45;;;6.40;52.10;;;;;;4899343;29;20528;-75
2023/03/29 02:12:58;;;;;;;6.85;2.17;;;6.40;52.10;;;;;;4898737;29;20092;-75
2023/03/29 02:15:24;;;;;;;5.80;2.33;;;6.50;52.10;;;;;;4912848;29;20028;-75
2023/03/29 02:17:50;;;;;;;5.75;2.45;;;6.50;52.20;;;;;;4918001;29;20054;-75
2023/03/29 02:20:22;;;;;;;6.47;2.53;;;6.50;52.30;;;;;;4918191;29;20079;-75
2023/03/29 02:23:03;;;;;;;6.75;2.78;;;6.50;52.90;;;;;;4902215;29;20107;-75
2023/03/29 02:25:31;;;;;;;5.50;1.90;;;6.50;53.10;;;;;;4909016;29;20036;-74
2023/03/29 02:27:57;;;;;;;3.83;2.00;;;6.50;53.00;;;;;;4899013;29;20115;-75
2023/03/29 02:30:28;;;;;;;7.18;1.98;;;6.60;53.00;;;;;;4971017;28;20395;-75
2023/03/29 02:33:14;;;;;;;4.25;1.70;;;6.60;53.00;;;;;;4977278;28;20066;-75
2023/03/29 02:35:57;;;;;;;6.57;2.42;;;6.60;52.80;;;;;;4977188;28;20462;-75
2023/03/29 02:38:26;;;;;;;4.82;1.50;;;6.70;52.80;;;;;;4977343;28;20038;-74
2023/03/29 02:40:54;;;;;;;6.82;2.45;;;6.70;52.80;;;;;;4977015;28;20027;-75
2023/03/29 02:43:23;;;;;;;9.68;2.47;;;6.70;52.90;;;;;;4976492;28;20190;-75
2023/03/29 02:45:49;;;;;;;8.55;2.40;;;6.70;52.90;;;;;;4996051;28;20026;-75
2023/03/29 02:48:19;;;;;;;6.90;2.17;;;6.70;52.90;;;;;;4978898;28;20029;-75
2023/03/29 02:50:48;;;;;;;6.38;2.35;;;6.70;52.90;;;;;;4995520;28;20078;-75
2023/03/29 02:53:17;;;;;;;4.03;2.00;;;6.70;52.80;;;;;;4996335;28;20026;-75
2023/03/29 02:55:45;;;;;;;7.93;2.55;;;6.70;52.90;;;;;;4995807;28;20026;-74
2023/03/29 02:58:14;;;;;;;4.45;1.80;;;6.70;52.90;;;;;;4978711;28;20041;-75
2023/03/29 03:00:44;;;;;;;6.50;2.22;;;6.80;52.70;;;;;;4996139;28;20022;-75
2023/03/29 03:03:11;;;;;;;10.35;2.22;;;6.70;52.50;;;;;;4996200;28;20023;-75
2023/03/29 03:05:37;;;;;;;7.45;1.83;;;6.80;52.40;;;;;;4996091;28;20022;-75
2023/03/29 03:08:06;;;;;;;4.38;1.90;;;6.80;52.40;;;;;;4995933;28;20023;-75
2023/03/29 03:10:33;;;;;;;6.43;2.40;;;6.80;52.40;;;;;;4996121;28;20408;-75
2023/03/29 03:12:59;;;;;;;10.80;2.70;;;6.80;52.30;;;;;;4995796;28;20097;-75
2023/03/29 03:15:26;;;;;;;7.88;2.60;;;6.80;52.30;;;;;;4995806;28;20492;-75
2023/03/29 03:17:52;;;;;;;6.30;2.60;;;6.80;52.30;;;;;;4978168;28;20057;-74
2023/03/29 03:20:20;;;;;;;6.82;2.45;;;6.70;52.50;;;;;;4995611;28;20029;-74
2023/03/29 03:22:47;;;;;;;5.60;2.00;;;6.70;52.50;;;;;;4995651;28;20097;-75
2023/03/29 03:25:19;;;;;;;7.55;1.90;;;6.70;52.40;;;;;;4995391;28;20018;-75
2023/03/29 03:27:47;;;;;;;3.97;2.00;;;6.80;52.40;;;;;;4995550;28;20038;-75
2023/03/29 03:30:13;;;;;;;7.03;2.33;;;6.80;52.40;;;;;;4977987;28;20109;-75
2023/03/29 03:32:40;;;;;;;4.80;2.30;;;6.80;52.30;;;;;;4995539;28;20061;-75
2023/03/29 03:35:06;;;;;;;9.65;2.33;;;6.80;52.20;;;;;;4995289;28;20473;-74
2023/03/29 03:37:32;;;;;;;4.70;2.25;;;6.80;52.10;;;;;;4995368;28;20030;-75
2023/03/29 03:39:58;;;;;;;4.32;1.85;;;6.80;52.00;;;;;;4977891;28;20026;-75
2023/03/29 03:42:28;;;;;;;5.05;1.90;;;6.80;52.00;;;;;;4977809;28;20018;-74
2023/03/29 03:44:55;;;;;;;5.72;1.75;;;6.90;51.90;;;;;;4995247;28;20027;-75
2023/03/29 03:47:21;;;;;;;9.43;2.15;;;6.90;51.80;;;;;;4995239;28;20030;-75
2023/03/29 03:49:47;;;;;;;6.00;2.47;;;6.90;51.60;;;;;;4995211;28;20045;-75
2023/03/29 03:52:13;;;;;;;8.50;2.50;;;6.90;51.40;;;;;;4994895;28;20026;-75
2023/03/29 03:54:39;;;;;;;5.30;2.10;;;6.80;51.30;;;;;;4977441;28;20027;-74
2023/03/29 03:57:05;;;;;;;5.85;2.33;;;6.80;51.30;;;;;;4994918;28;20595;-74
2023/03/29 03:59:31;;;;;;;5.25;1.92;;;6.80;51.30;;;;;;4994972;28;20476;-75
2023/03/29 04:01:57;;;;;;;3.97;2.03;;;6.80;51.20;;;;;;4994958;28;20030;-75
2023/03/29 04:04:23;;;;;;;3.72;1.70;;;6.80;51.20;;;;;;4995037;28;20073;-75
2023/03/29 04:06:49;;;;;;;7.90;2.28;;;6.90;51.20;;;;;;4994910;28;20022;-75
2023/03/29 04:09:15;;;;;;;5.57;2.50;;;6.90;51.10;;;;;;4994790;28;20049;-75
2023/03/29 04:11:41;;;;;;;4.57;1.95;;;6.90;51.00;;;;;;4977476;28;20026;-75
2023/03/29 04:14:06;;;;;;;4.63;2.35;;;7.00;50.90;;;;;;4994679;28;20105;-75
2023/03/29 04:16:32;;;;;;;7.82;2.00;;;7.00;50.70;;;;;;4994973;28;20030;-75
2023/03/29 04:18:58;;;;;;;10.65;2.60;;;7.00;50.70;;;;;;4994704;28;20022;-75
2023/03/29 04:21:24;;;;;;;3.70;1.80;;;7.00;50.80;;;;;;4994630;28;20022;-75
2023/03/29 04:23:49;;;;;;;4.18;2.20;;;7.10;50.80;;;;;;4994466;28;20029;-75
2023/03/29 04:26:16;;;;;;;9.50;4.15;;;7.10;50.80;;;;;;4976853;28;20480;-75
2023/03/29 04:28:43;;;;;;;17.20;7.97;;;7.10;50.80;;;;;;4994221;28;20109;-75
2023/03/29 04:31:11;;;;;;;11.57;5.80;;;7.10;50.70;;;;;;4994398;28;20023;-75
2023/03/29 04:33:37;;;;;;;10.88;4.80;;;7.20;50.80;;;;;;4994134;28;20057;-75
2023/03/29 04:36:04;;;;;;;13.95;6.72;;;7.20;50.80;;;;;;4994492;28;20068;-75
2023/03/29 04:38:30;;;;;;;13.68;5.70;;;7.20;50.80;;;;;;4994316;28;20383;-75
2023/03/29 04:40:56;;;;;;;13.00;4.25;;;7.20;51.00;;;;;;4994279;28;20018;-75
2023/03/29 04:43:22;;;;;;;7.85;4.07;;;7.20;51.00;;;;;;4993527;28;20030;-75
2023/03/29 04:45:48;;;;;;;8.68;3.70;;;7.30;51.00;;;;;;4994264;28;20518;-75
2023/03/29 04:48:14;;;;;;;11.48;3.97;;;7.30;51.00;;;;;;4994160;28;20058;-75
2023/03/29 04:50:40;;;;;;;8.18;3.95;;;7.40;51.10;;;;;;4994186;28;20046;-75
2023/03/29 04:53:09;;;;;;;5.63;2.80;;;7.40;51.10;;;;;;4976800;28;20057;-75
2023/03/29 04:55:35;;;;;;;17.45;2.97;;;7.40;51.00;;;;;;4993801;28;20051;-75
2023/03/29 04:58:01;;;;;;;14.60;2.72;;;7.50;51.00;;;;;;4994214;28;20142;-75
2023/03/29 05:00:27;;;;;;;9.07;2.58;;;7.50;51.00;;;;;;4994012;28;20029;-75
2023/03/29 05:02:53;;;;;;;9.48;3.03;;;7.50;51.00;;;;;;4993925;28;20018;-75
2023/03/29 05:05:19;;;;;;;10.00;3.35;;;7.50;51.00;;;;;;4976577;28;20023;-75
2023/03/29 05:07:45;;;;;;;17.33;4.15;;;7.50;51.20;;;;;;4976363;28;20026;-75
2023/03/29 05:10:11;;;;;;;6.80;3.22;;;7.50;51.40;;;;;;4993995;28;20475;-75
2023/03/29 05:12:37;;;;;;;9.27;3.80;;;7.50;51.40;;;;;;4995996;28;20022;-75
2023/03/29 05:15:07;;;;;;;6.28;2.78;;;7.50;51.40;;;;;;5000389;28;20145;-75
2023/03/29 05:17:33;;;;;;;10.75;3.25;;;7.60;51.30;;;;;;5000161;28;20030;-75
2023/03/29 05:19:59;;;;;;;9.85;4.43;;;7.60;51.20;;;;;;5000238;28;20034;-75
2023/03/29 05:22:25;;;;;;;6.53;3.15;;;7.60;51.10;;;;;;5000233;28;20026;-75
2023/03/29 05:24:51;;;;;;;6.95;3.55;;;7.60;51.10;;;;;;5000013;28;20025;-75
2023/03/29 05:27:18;;;;;;;11.57;3.55;;;7.70;51.20;;;;;;5000241;28;20492;-75
2023/03/29 05:29:43;;;;;;;7.22;2.85;;;7.60;51.30;;;;;;5000003;28;20061;-75
2023/03/29 05:32:10;;;;;;;7.43;3.80;;;7.70;51.40;;;;;;4982622;28;20053;-75
2023/03/29 05:34:36;;;;;;;10.63;4.68;;;7.70;51.70;;;;;;5000014;28;20049;-75
2023/03/29 05:37:02;;;;;;;9.15;3.88;;;7.70;51.60;;;;;;5000023;28;20042;-75
2023/03/29 05:39:27;;;;;;;10.95;3.35;;;7.70;51.70;;;;;;5000051;28;20504;-75
2023/03/29 05:41:53;;;;;;;12.70;3.85;;;7.70;51.90;;;;;;4999195;28;20057;-76
2023/03/29 05:44:20;;;;;;;14.73;6.35;;;7.70;52.00;;;;;;4999888;28;20494;-77
2023/03/29 05:46:45;;;;;;;11.88;4.70;;;7.70;52.10;;;;;;4999747;28;20050;-76
2023/03/29 05:49:11;;;;;;;11.13;3.53;;;7.70;52.20;;;;;;4999882;28;20065;-75
2023/03/29 05:51:37;;;;;;;10.82;3.83;;;7.60;52.20;;;;;;4999483;28;20121;-75
2023/03/29 05:54:03;;;;;;;11.77;4.03;;;7.60;52.10;;;;;;4999495;28;20463;-76
2023/03/29 05:56:29;;;;;;;7.35;2.90;;;7.60;52.10;;;;;;4999578;28;20392;-75
2023/03/29 05:58:55;;;;;;;8.85;3.13;;;7.50;52.00;;;;;;4982276;28;20018;-75
2023/03/29 06:01:23;;;;;;;13.20;3.83;;;7.50;52.20;;;;;;4982225;28;20029;-75
2023/03/29 06:03:49;;;;;;;32.40;16.10;;;7.60;52.50;;;;;;4981752;28;20145;-76
2023/03/29 06:06:15;;;;;;;52.28;21.65;;;7.60;52.50;;;;;;4999677;28;20038;-75
2023/03/29 06:08:42;;;;;;;34.72;16.67;;;7.50;52.10;;;;;;4982270;28;20084;-75
2023/03/29 06:11:10;;;;;;;20.38;8.07;;;7.50;52.00;;;;;;4999827;28;20054;-76
2023/03/29 06:13:37;;;;;;;13.27;5.35;;;7.40;51.90;;;;;;4999358;28;20026;-76
2023/03/29 06:16:08;;;;;;;15.80;4.82;;;7.40;52.20;;;;;;4999562;28;20118;-75
2023/03/29 06:18:34;;;;;;;18.27;4.80;;;7.30;52.40;;;;;;4999414;28;20025;-75
2023/03/29 06:21:02;;;;;;;9.50;3.83;;;7.20;52.50;;;;;;4999608;28;20026;-75
2023/03/29 06:23:29;;;;;;;14.38;4.13;;;7.20;53.00;;;;;;4999085;28;20026;-76
2023/03/29 06:25:55;;;;;;;17.95;6.57;;;7.10;53.30;;;;;;4977604;28;20096;-75
2023/03/29 06:28:22;;;;;;;19.60;4.60;;;7.10;53.60;;;;;;4997226;28;20119;-75
2023/03/29 06:30:49;;;;;;;17.15;7.25;;;7.10;53.70;;;;;;4978933;28;20365;-76
2023/03/29 06:33:15;;;;;;;18.90;9.23;;;7.10;53.90;;;;;;4996362;28;20033;-75
2023/03/29 06:35:46;;;;;;;16.83;5.90;;;7.10;54.20;;;;;;4979031;28;20034;-75
2023/03/29 06:38:14;;;;;;;19.05;6.80;;;7.00;54.50;;;;;;4996106;28;20026;-75
2023/03/29 06:40:41;;;;;;;11.73;5.97;;;7.10;55.00;;;;;;4996506;28;20027;-75
2023/03/29 06:43:08;;;;;;;29.20;8.63;;;7.10;55.40;;;;;;4996199;28;20026;-76
2023/03/29 06:45:36;;;;;;;23.20;9.85;;;7.10;55.70;;;;;;4995893;28;20106;-75
2023/03/29 06:48:03;;;;;;;18.25;7.22;;;7.20;55.80;;;;;;4996275;28;20030;-76
2023/03/29 06:50:30;;;;;;;15.98;8.80;;;7.20;55.90;;;;;;4996162;28;20048;-76
2023/03/29 06:52:56;;;;;;;19.75;9.32;;;7.20;56.00;;;;;;4996029;28;20045;-76
2023/03/29 06:55:22;;;;;;;20.33;7.18;;;7.30;55.80;;;;;;4978403;28;20479;-76
2023/03/29 06:57:48;;;;;;;15.70;5.47;;;7.40;55.80;;;;;;4996095;28;20037;-75
2023/03/29 07:00:21;;;;;;;27.17;8.77;;;7.40;55.50;;;;;;4996311;28;20018;-76
2023/03/29 07:02:48;;;;;;;16.45;5.65;;;7.50;55.20;;;;;;4996125;28;20109;-75
2023/03/29 07:05:14;;;;;;;19.48;6.43;;;7.40;54.60;;;;;;4995954;28;20025;-75
2023/03/29 07:07:54;;;;;;;13.38;5.18;;;7.40;54.50;;;;;;4995772;28;20023;-76
2023/03/29 07:10:25;;;;;;;15.13;4.45;;;7.30;54.80;;;;;;4995907;28;20472;-76
2023/03/29 07:12:51;;;;;;;17.73;4.57;;;7.30;55.00;;;;;;4995953;28;20030;-75
2023/03/29 07:15:18;;;;;;;13.10;4.05;;;7.30;55.10;;;;;;4995831;28;20037;-76
2023/03/29 07:17:44;;;;;;;10.68;4.20;;;7.30;55.20;;;;;;4978208;28;20500;-76
2023/03/29 07:20:13;;;;;;;10.88;3.90;;;7.40;55.10;;;;;;4995615;28;20384;-76
2023/03/29 07:22:40;;;;;;;12.30;3.80;;;7.30;55.00;;;;;;4978050;28;20027;-76
2023/03/29 07:25:09;;;;;;;8.15;2.85;;;7.30;54.90;;;;;;4995074;28;20014;-76
2023/03/29 07:27:36;;;;;;;11.73;3.63;;;7.30;54.90;;;;;;4995263;28;20030;-75
2023/03/29 07:30:05;;;;;;;10.85;3.20;;;7.30;54.70;;;;;;4995377;28;20034;-75
2023/03/29 07:32:31;;;;;;;11.63;3.63;;;7.30;54.70;;;;;;4995214;28;20073;-76
2023/03/29 07:34:57;;;;;;;8.80;3.28;;;7.20;54.90;;;;;;4994850;28;20113;-76
2023/03/29 07:37:23;;;;;;;12.80;3.45;;;7.30;54.90;;;;;;4977455;28;20037;-75
2023/03/29 07:39:50;;;;;;;11.02;2.85;;;7.30;55.00;;;;;;4995554;28;20125;-76
2023/03/29 07:42:16;;;;;;;11.98;3.28;;;7.30;55.00;;;;;;4976993;28;20027;-76
2023/03/29 07:44:42;;;;;;;10.30;3.10;;;7.20;54.90;;;;;;4995303;28;20021;-75
2023/03/29 07:47:08;;;;;;;9.70;3.20;;;7.20;55.00;;;;;;4995111;28;20030;-76
2023/03/29 07:49:33;;;;;;;14.98;3.95;;;7.10;55.30;;;;;;4995066;28;20484;-76
2023/03/29 07:52:00;;;;;;;16.63;4.40;;;7.10;55.60;;;;;;4994919;28;20039;-75
2023/03/29 07:54:25;;;;;;;9.18;3.30;;;7.10;56.10;;;;;;4994921;28;20031;-76
2023/03/29 07:56:51;;;;;;;9.52;4.07;;;7.10;55.50;;;;;;4994774;28;20504;-75
2023/03/29 07:59:17;;;;;;;12.35;3.20;;;7.20;55.70;;;;;;4995219;28;20037;-76
2023/03/29 08:01:43;;;;;;;8.48;3.45;;;7.30;55.90;;;;;;4977205;28;20050;-75
2023/03/29 08:04:09;;;;;;;8.38;3.17;;;7.30;56.40;;;;;;4976948;28;20471;-76
2023/03/29 08:06:36;;;;;;;12.00;4.47;;;7.40;55.60;;;;;;4977325;28;20337;-75
2023/03/29 08:09:02;;;;;;;8.35;3.42;;;7.40;55.50;;;;;;4994630;28;20030;-76
2023/03/29 08:11:27;;;;;;;6.93;3.00;;;7.40;55.60;;;;;;4994817;28;20030;-76
2023/03/29 08:13:53;;;;;;;11.30;3.25;;;7.40;55.50;;;;;;4994566;28;20356;-76
2023/03/29 08:16:19;;;;;;;10.35;3.35;;;7.50;55.70;;;;;;4977231;28;20117;-75
2023/03/29 08:18:45;;;;;;;9.32;3.35;;;7.60;55.70;;;;;;4994630;28;20029;-76
2023/03/29 08:21:13;;;;;;;6.55;3.03;;;7.60;55.70;;;;;;4994640;28;20184;-76
2023/03/29 08:23:39;;;;;;;10.10;3.58;;;7.70;55.80;;;;;;4977106;28;20604;-76
2023/03/29 08:26:07;;;;;;;11.38;3.10;;;7.80;55.80;;;;;;4994248;28;20103;-76
2023/03/29 08:28:33;;;;;;;10.13;4.10;;;7.90;55.60;;;;;;4976973;28;20480;-76
2023/03/29 08:30:59;;;;;;;7.82;3.30;;;8.10;55.60;;;;;;4994348;28;20033;-75
2023/03/29 08:33:25;;;;;;;10.68;2.88;;;8.20;55.40;;;;;;4973538;28;20124;-76
2023/03/29 08:35:52;;;;;;;7.72;3.15;;;8.30;55.20;;;;;;4994375;28;20026;-76
2023/03/29 08:38:18;;;;;;;8.20;2.88;;;8.50;54.90;;;;;;4994200;28;20110;-76
2023/03/29 08:40:47;;;;;;;6.55;2.80;;;8.60;54.60;;;;;;4994253;28;20479;-76
2023/03/29 08:43:16;;;;;;;6.95;2.67;;;8.60;54.50;;;;;;4976621;28;20436;-76
2023/03/29 08:46:17;;;;;;;6.40;2.90;;;8.70;54.00;;;;;;4976756;28;20022;-76
2023/03/29 08:48:55;;;;;;;4.97;2.22;;;8.70;53.90;;;;;;4993390;28;20025;-76
2023/03/29 08:51:38;;;;;;;7.75;3.63;;;8.80;53.90;;;;;;4976598;28;20054;-76
2023/03/29 08:54:37;;;;;;;5.20;2.65;;;8.80;53.70;;;;;;4994078;28;20437;-77
2023/03/29 08:57:20;;;;;;;6.75;2.33;;;8.80;53.60;;;;;;4959266;28;20041;-75
2023/03/29 08:59:50;;;;;;;8.38;2.83;;;9.00;54.00;;;;;;4994105;28;20029;-76
2023/03/29 09:02:23;;;;;;;6.35;2.42;;;9.10;54.40;;;;;;4976562;28;20479;-76
2023/03/29 09:04:51;;;;;;;6.95;2.97;;;9.10;53.70;;;;;;4993798;28;20046;-76
2023/03/29 09:07:17;;;;;;;8.27;3.53;;;9.20;53.90;;;;;;4976400;28;20503;-75
2023/03/29 09:09:43;;;;;;;8.57;3.25;;;9.30;53.70;;;;;;4993891;28;20061;-76
2023/03/29 09:12:15;;;;;;;9.18;3.55;;;9.30;53.40;;;;;;4994428;28;20031;-76
2023/03/29 09:14:57;;;;;;;8.10;3.60;;;9.30;53.10;;;;;;4976243;28;20626;-76
2023/03/29 09:17:32;;;;;;;7.95;3.38;;;9.40;53.30;;;;;;4993814;28;20038;-76
2023/03/29 09:20:03;;;;;;;5.70;3.03;;;9.40;52.90;;;;;;4993841;28;20105;-76
2023/03/29 09:23:07;;;;;;;13.98;4.65;;;9.40;53.00;;;;;;4993932;28;20559;-76
2023/03/29 09:25:42;;;;;;;13.15;5.20;;;9.50;53.10;;;;;;4905075;28;20089;-76
2023/03/29 09:28:18;;;;;;;8.02;4.07;;;9.50;53.00;;;;;;4956922;28;20110;-76
2023/03/29 09:31:09;;;;;;;9.80;4.15;;;9.70;53.50;;;;;;4974400;28;20550;-76
2023/03/29 09:33:58;;;;;;;9.50;3.67;;;9.80;53.40;;;;;;4974150;28;20048;-76
2023/03/29 09:37:01;;;;;;;10.23;3.63;;;9.90;53.00;;;;;;4927781;28;20066;-76
2023/03/29 09:39:27;;;;;;;13.35;4.50;;;10.00;52.30;;;;;;4924703;28;20035;-76
2023/03/29 09:42:03;;;;;;;13.20;5.10;;;10.10;52.40;;;;;;4956975;28;20041;-76
2023/03/29 09:44:36;;;;;;;13.88;5.22;;;10.20;52.90;;;;;;4956937;28;20031;-76
2023/03/29 09:47:11;;;;;;;10.73;3.53;;;10.30;52.60;;;;;;4974311;28;20033;-76
2023/03/29 09:49:45;;;;;;;10.05;4.25;;;10.30;51.70;;;;;;4974297;28;20436;-76
2023/03/29 09:52:15;;;;;;;7.72;4.00;;;10.30;52.60;;;;;;4974227;28;20151;-76
2023/03/29 09:54:41;;;;;;;6.55;3.83;;;10.50;52.50;;;;;;4978660;28;20467;-76
2023/03/29 09:57:12;;;;;;;13.13;5.07;;;10.60;52.50;;;;;;4993296;28;20465;-76
2023/03/29 09:59:38;;;;;;;8.05;3.85;;;10.80;52.20;;;;;;4995780;28;20439;-76
2023/03/29 10:02:10;;;;;;;8.82;3.30;;;10.90;52.00;;;;;;4997163;28;20101;-76
2023/03/29 10:04:37;;;;;;;8.13;3.20;;;11.10;52.60;;;;;;4997104;28;20479;-76
2023/03/29 10:07:05;;;;;;;8.75;3.42;;;11.30;51.80;;;;;;4979610;28;20038;-76
2023/03/29 10:09:31;;;;;;;8.25;2.85;;;11.40;50.80;;;;;;4996740;28;20034;-76
2023/03/29 10:12:03;;;;;;;9.50;2.88;;;11.40;49.80;;;;;;4997029;28;20026;-76
2023/03/29 10:14:37;;;;;;;13.52;2.88;;;11.30;49.90;;;;;;4997047;28;20475;-76
2023/03/29 10:17:21;;;;;;;20.42;5.43;;;11.30;50.00;;;;;;4996967;28;20073;-76
2023/03/29 10:19:49;;;;;;;8.57;3.45;;;11.20;50.00;;;;;;4979601;28;20077;-76
2023/03/29 10:22:21;;;;;;;12.65;3.30;;;11.20;49.70;;;;;;4979259;28;20027;-76
2023/03/29 10:24:51;;;;;;;13.10;3.30;;;11.10;49.80;;;;;;4996537;28;20109;-76
2023/03/29 10:27:24;;;;;;;12.98;3.60;;;11.10;50.10;;;;;;4996827;28;20022;-76
2023/03/29 10:29:52;;;;;;;11.32;4.13;;;11.20;50.60;;;;;;4979246;28;20033;-76
2023/03/29 10:32:27;;;;;;;12.43;4.18;;;11.30;50.90;;;;;;4996721;28;20101;-76
2023/03/29 10:34:54;;;;;;;16.65;3.70;;;11.40;50.80;;;;;;4996333;28;20104;-74
2023/03/29 10:37:20;;;;;;;9.50;3.95;;;11.50;50.80;;;;;;4978865;28;20040;-74
2023/03/29 10:39:47;;;;;;;11.38;4.18;;;11.60;50.10;;;;;;4996175;28;20023;-76
2023/03/29 10:42:16;;;;;;;9.93;4.07;;;11.60;50.00;;;;;;4996307;28;20026;-74
2023/03/29 10:44:51;;;;;;;10.98;5.13;;;11.70;50.40;;;;;;4996256;28;20468;-74
2023/03/29 10:47:19;;;;;;;30.42;5.97;;;11.80;49.80;;;;;;4996268;28;20026;-74
2023/03/29 10:49:53;;;;;;;31.77;9.05;;;11.80;49.80;;;;;;4978786;28;20030;-75
2023/03/29 10:52:20;;;;;;;74.18;11.27;;;11.80;49.40;;;;;;4978847;28;20023;-76
2023/03/29 10:54:48;;;;;;;13.43;5.40;;;11.80;49.60;;;;;;4995885;28;20030;-74
2023/03/29 10:57:37;;;;;;;34.50;5.82;;;11.80;49.70;;;;;;4996045;28;20027;-74
2023/03/29 11:00:39;;;;;;;11.18;4.85;;;11.90;49.40;;;;;;4996085;28;20029;-74
2023/03/29 11:03:20;;;;;;;11.27;6.07;;;12.00;49.50;;;;;;4995814;28;20417;-73
2023/03/29 11:06:15;;;;;;;11.20;5.45;;;12.10;49.40;;;;;;4995830;28;20105;-74
2023/03/29 11:08:56;;;;;;;16.40;8.35;;;12.30;49.90;;;;;;4996042;28;20570;-73
2023/03/29 11:11:29;;;;;;;27.13;7.82;;;12.50;49.80;;;;;;4995195;28;20026;-74
2023/03/29 11:14:36;;;;;;;14.40;7.53;;;12.70;49.40;;;;;;4995995;28;20033;-74
2023/03/29 11:17:25;;;;;;;9.75;5.18;;;12.90;49.00;;;;;;4995783;28;20370;-74
2023/03/29 11:20:10;;;;;;;14.38;5.68;;;13.10;48.60;;;;;;4995746;28;20018;-74
2023/03/29 11:22:47;;;;;;;11.95;5.28;;;13.20;47.80;;;;;;4995867;28;20034;-74
2023/03/29 11:25:24;;;;;;;10.50;5.13;;;13.30;47.40;;;;;;4977859;28;20034;-74
2023/03/29 11:28:02;;;;;;;14.82;5.32;;;13.40;47.30;;;;;;4995326;28;20019;-74
2023/03/29 11:30:37;;;;;;;7.95;3.88;;;13.40;46.60;;;;;;4995477;28;20098;-74
2023/03/29 11:33:18;;;;;;;4.70;2.90;;;13.50;46.80;;;;;;4995282;28;20033;-74
2023/03/29 11:36:04;;;;;;;6.93;3.20;;;13.60;47.00;;;;;;4995123;28;20034;-75
2023/03/29 11:38:53;;;;;;;5.32;2.55;;;13.70;47.40;;;;;;4995170;28;20030;-74
2023/03/29 11:41:25;;;;;;;15.63;6.22;;;13.80;46.30;;;;;;4995332;28;20533;-74
2023/03/29 11:44:02;;;;;;;7.90;3.95;;;13.80;46.40;;;;;;4995526;28;20061;-74
2023/03/29 11:46:38;;;;;;;4.35;2.40;;;13.90;46.50;;;;;;4995291;28;20022;-74
2023/03/29 11:49:26;;;;;;;10.40;3.30;;;14.00;46.70;;;;;;4995035;28;20037;-74
2023/03/29 11:52:03;;;;;;;5.97;2.97;;;14.10;46.00;;;;;;4994971;28;20034;-75
2023/03/29 11:54:51;;;;;;;8.90;2.47;;;14.30;46.10;;;;;;4977369;28;20022;-74
2023/03/29 11:57:26;;;;;;;5.63;2.55;;;14.30;45.70;;;;;;4994754;28;20023;-75
2023/03/29 12:00:40;;;;;;;11.95;3.38;;;14.40;45.20;;;;;;4977518;28;20449;-74
2023/03/29 12:03:11;;;;;;;5.65;3.00;;;14.20;44.50;;;;;;4897183;29;20111;-76
2023/03/29 12:05:47;;;;;;;6.50;2.15;;;14.20;45.10;;;;;;4897523;29;20045;-75
2023/03/29 12:08:54;;;;;;;4.80;2.50;;;14.20;45.40;;;;;;4881721;29;20063;-75
2023/03/29 12:11:48;;;;;;;5.35;2.33;;;14.20;45.90;;;;;;4896261;29;20072;-75
2023/03/29 12:14:22;;;;;;;5.77;2.47;;;14.30;45.80;;;;;;4896090;29;20411;-75
2023/03/29 12:16:53;;;;;;;6.43;3.00;;;14.40;45.80;;;;;;4896498;29;20292;-75
2023/03/29 12:19:45;;;;;;;11.82;3.45;;;14.50;45.70;;;;;;4896736;29;20108;-75
2023/03/29 12:22:11;;;;;;;10.57;3.22;;;14.50;45.10;;;;;;4878640;29;20043;-75
2023/03/29 12:24:40;;;;;;;7.18;3.67;;;14.50;45.20;;;;;;4881122;29;20485;-76
2023/03/29 12:27:12;;;;;;;6.75;3.90;;;14.50;44.50;;;;;;4896666;29;20033;-75
2023/03/29 12:30:00;;;;;;;6.35;3.47;;;14.30;44.20;;;;;;4896560;29;20115;-74
2023/03/29 12:32:31;;;;;;;5.95;2.83;;;14.30;44.40;;;;;;4896692;29;20039;-74
2023/03/29 12:35:34;;;;;;;18.27;3.50;;;14.30;44.80;;;;;;4896045;29;20152;-74
2023/03/29 12:38:23;;;;;;;10.65;3.92;;;14.30;45.40;;;;;;4965751;28;20057;-75
2023/03/29 12:40:58;;;;;;;6.63;2.83;;;14.30;45.20;;;;;;4994374;28;20384;-75
2023/03/29 12:43:38;;;;;;;7.18;3.50;;;14.40;45.50;;;;;;4994117;28;20101;-75
2023/03/29 12:46:08;;;;;;;7.75;3.72;;;14.50;45.10;;;;;;4993947;28;20022;-75
2023/03/29 12:48:39;;;;;;;7.90;3.25;;;14.60;44.60;;;;;;4994074;28;20023;-75
2023/03/29 12:51:11;;;;;;;10.77;3.58;;;14.60;44.60;;;;;;4994105;28;20014;-74
2023/03/29 12:53:46;;;;;;;11.20;4.07;;;14.60;44.50;;;;;;4994141;28;20031;-74
2023/03/29 12:56:14;;;;;;;4.95;3.05;;;14.60;43.80;;;;;;4993321;28;20480;-75
2023/03/29 12:59:08;;;;;;;5.35;3.20;;;14.50;44.10;;;;;;4993908;28;20384;-75
2023/03/29 13:01:40;;;;;;;6.15;2.83;;;14.50;44.70;;;;;;4994043;28;20022;-75
2023/03/29 13:04:12;;;;;;;7.63;2.92;;;14.60;45.10;;;;;;4993979;28;20026;-75
2023/03/29 13:07:03;;;;;;;8.52;3.40;;;14.70;44.70;;;;;;4993758;28;20022;-75
2023/03/29 13:09:36;;;;;;;21.48;3.55;;;14.80;44.90;;;;;;4993923;28;20031;-75
2023/03/29 13:12:11;;;;;;;12.93;4.03;;;14.90;45.00;;;;;;4976431;28;20030;-75